createdAt,value
2024-04-25T00:00:39.184Z,1259.00
2024-04-25T00:01:39.042Z,1263.00
2024-04-25T00:02:39.182Z,1261.00
2024-04-25T00:03:39.265Z,1264.00
2024-04-25T00:04:39.348Z,1259.00
2024-04-25T00:05:39.389Z,1272.00
2024-04-25T00:06:39.410Z,1260.00
2024-04-25T00:07:39.487Z,1270.00
2024-04-25T00:08:39.598Z,1262.00
2024-04-25T00:09:39.658Z,1260.00
2024-04-25T00:10:39.746Z,1271.00
2024-04-25T00:11:39.993Z,1260.00
2024-04-25T00:12:39.866Z,1258.00
2024-04-25T00:13:39.936Z,1265.00
2024-04-25T00:14:40.064Z,1263.00
2024-04-25T00:15:40.096Z,1254.00
2024-04-25T00:16:40.170Z,1257.00
2024-04-25T00:17:40.349Z,1254.00
2024-04-25T00:18:40.306Z,1264.00
2024-04-25T00:19:40.375Z,1256.00
2024-04-25T00:20:40.528Z,1259.00
2024-04-25T00:21:40.525Z,1258.00
2024-04-25T00:22:40.587Z,1252.00
2024-04-25T00:23:40.675Z,1245.00
2024-04-25T00:24:40.729Z,1245.00
2024-04-25T00:25:40.814Z,1246.00
2024-04-25T00:26:40.913Z,1247.00
2024-04-25T00:27:40.945Z,1249.00
2024-04-25T00:28:41.033Z,1251.00
2024-04-25T00:29:41.150Z,1246.00
2024-04-25T00:30:41.178Z,1247.00
2024-04-25T00:31:41.255Z,1250.00
2024-04-25T00:32:41.455Z,1249.00
2024-04-25T00:33:41.522Z,1247.00
2024-04-25T00:34:41.483Z,1246.00
2024-04-25T00:35:41.582Z,1239.00
2024-04-25T00:36:41.638Z,1248.00
2024-04-25T00:37:41.708Z,1246.00
2024-04-25T00:38:41.798Z,1245.00
2024-04-25T00:39:41.886Z,1246.00
2024-04-25T00:40:41.934Z,1234.00
2024-04-25T00:41:42.084Z,1240.00
2024-04-25T00:42:42.087Z,1237.00
2024-04-25T00:43:42.165Z,1235.00
2024-04-25T00:44:42.271Z,1239.00
2024-04-25T00:45:42.324Z,1237.00
2024-04-25T00:46:42.402Z,1229.00
2024-04-25T00:47:42.564Z,1244.00
2024-04-25T00:48:42.571Z,1231.00
2024-04-25T00:49:42.605Z,1230.00
2024-04-25T00:50:42.735Z,1237.00
2024-04-25T00:51:42.721Z,1226.00
2024-04-25T00:52:42.781Z,1238.00
2024-04-25T00:53:42.843Z,1234.00
2024-04-25T00:54:42.881Z,1228.00
2024-04-25T00:55:42.917Z,1239.00
2024-04-25T00:56:42.997Z,1231.00
2024-04-25T00:57:43.005Z,1238.00
2024-04-25T00:58:43.057Z,1219.00
2024-04-25T00:59:43.142Z,1226.00
2024-04-25T01:00:43.194Z,1223.00
2024-04-25T01:01:43.196Z,1229.00
2024-04-25T01:02:43.367Z,1221.00
2024-04-25T01:03:43.454Z,1226.00
2024-04-25T01:04:43.319Z,1222.00
2024-04-25T01:05:43.448Z,1230.00
2024-04-25T01:06:43.429Z,1227.00
2024-04-25T01:07:43.464Z,1219.00
2024-04-25T01:08:43.543Z,1227.00
2024-04-25T01:09:43.561Z,1224.00
2024-04-25T01:10:43.649Z,1218.00
2024-04-25T01:11:43.702Z,1224.00
2024-04-25T01:12:43.691Z,1218.00
2024-04-25T01:13:43.831Z,1211.00
2024-04-25T01:14:43.843Z,1213.00
2024-04-25T01:15:43.845Z,1207.00
2024-04-25T01:16:43.921Z,1216.00
2024-04-25T01:17:44.051Z,1216.00
2024-04-25T01:18:44.007Z,1211.00
2024-04-25T01:19:44.018Z,1215.00
2024-04-25T01:20:44.179Z,1210.00
2024-04-25T01:21:44.146Z,1202.00
2024-04-25T01:22:44.166Z,1208.00
2024-04-25T01:23:44.230Z,1216.00
2024-04-25T01:24:44.259Z,1202.00
2024-04-25T01:25:44.304Z,1206.00
2024-04-25T01:26:44.385Z,1201.00
2024-04-25T01:27:44.392Z,1206.00
2024-04-25T01:28:44.437Z,1207.00
2024-04-25T01:29:44.501Z,1210.00
2024-04-25T01:30:44.525Z,1212.00
2024-04-25T01:31:44.565Z,1214.00
2024-04-25T01:32:44.703Z,1198.00
2024-04-25T01:33:44.707Z,1208.00
2024-04-25T01:34:44.714Z,1201.00
2024-04-25T01:35:44.815Z,1198.00
2024-04-25T01:36:44.812Z,1201.00
2024-04-25T01:37:44.847Z,1200.00
2024-04-25T01:38:44.931Z,1187.00
2024-04-25T01:39:44.936Z,1195.00
2024-04-25T01:40:44.958Z,1188.00
2024-04-25T01:41:45.008Z,1187.00
2024-04-25T01:42:45.009Z,1190.00
2024-04-25T01:43:45.041Z,1191.00
2024-04-25T01:44:45.126Z,1189.00
2024-04-25T01:45:45.076Z,1189.00
2024-04-25T01:46:45.113Z,1194.00
2024-04-25T01:47:45.211Z,1189.00
2024-04-25T01:48:45.205Z,1183.00
2024-04-25T01:49:45.187Z,1184.00
2024-04-25T01:50:45.226Z,1191.00
2024-04-25T01:51:45.234Z,1183.00
2024-04-25T01:52:45.267Z,1186.00
2024-04-25T01:53:45.291Z,1183.00
2024-04-25T01:54:45.315Z,1188.00
2024-04-25T01:55:45.352Z,1194.00
2024-04-25T01:56:45.457Z,1184.00
2024-04-25T01:57:45.405Z,1184.00
2024-04-25T01:58:45.424Z,1183.00
2024-04-25T01:59:45.448Z,1183.00
2024-04-25T02:00:45.506Z,1180.00
2024-04-25T02:01:45.514Z,1184.00
2024-04-25T02:02:45.734Z,1186.00
2024-04-25T02:03:45.600Z,1187.00
2024-04-25T02:04:45.578Z,1179.00
2024-04-25T02:05:45.621Z,1178.00
2024-04-25T02:06:45.650Z,1181.00
2024-04-25T02:07:45.662Z,1183.00
2024-04-25T02:08:45.679Z,1174.00
2024-04-25T02:09:45.726Z,1179.00
2024-04-25T02:10:45.782Z,1178.00
2024-04-25T02:11:45.880Z,1164.00
2024-04-25T02:12:45.780Z,1170.00
2024-04-25T02:13:45.800Z,1175.00
2024-04-25T02:14:45.823Z,1175.00
2024-04-25T02:15:45.851Z,1171.00
2024-04-25T02:16:45.890Z,1167.00
2024-04-25T02:17:46.022Z,1172.00
2024-04-25T02:18:46.011Z,1171.00
2024-04-25T02:19:45.945Z,1181.00
2024-04-25T02:20:45.975Z,1174.00
2024-04-25T02:21:45.986Z,1175.00
2024-04-25T02:22:46.025Z,1162.00
2024-04-25T02:23:46.046Z,1163.00
2024-04-25T02:24:46.090Z,1164.00
2024-04-25T02:25:46.111Z,1171.00
2024-04-25T02:26:46.118Z,1167.00
2024-04-25T02:27:46.152Z,1166.00
2024-04-25T02:28:46.173Z,1166.00
2024-04-25T02:29:46.279Z,1170.00
2024-04-25T02:30:46.236Z,1158.00
2024-04-25T02:31:46.275Z,1162.00
2024-04-25T02:32:46.321Z,1152.00
2024-04-25T02:33:46.304Z,1164.00
2024-04-25T02:34:46.342Z,1167.00
2024-04-25T02:35:46.366Z,1163.00
2024-04-25T02:36:46.385Z,1163.00
2024-04-25T02:37:46.444Z,1157.00
2024-04-25T02:38:46.437Z,1161.00
2024-04-25T02:39:46.464Z,1161.00
2024-04-25T02:40:46.502Z,1158.00
2024-04-25T02:41:46.521Z,1156.00
2024-04-25T02:42:46.540Z,1161.00
2024-04-25T02:43:46.575Z,1160.00
2024-04-25T02:44:46.596Z,1163.00
2024-04-25T02:45:46.652Z,1152.00
2024-04-25T02:46:46.652Z,1156.00
2024-04-25T02:47:46.910Z,1158.00
2024-04-25T02:48:46.760Z,1158.00
2024-04-25T02:49:46.726Z,1158.00
2024-04-25T02:50:46.766Z,1150.00
2024-04-25T02:51:46.785Z,1151.00
2024-04-25T02:52:46.808Z,1157.00
2024-04-25T02:53:46.948Z,1157.00
2024-04-25T02:54:46.858Z,1152.00
2024-04-25T02:55:47.037Z,1157.00
2024-04-25T02:56:46.985Z,1148.00
2024-04-25T02:57:46.985Z,1146.00
2024-04-25T02:58:47.013Z,1145.00
2024-04-25T02:59:46.984Z,1143.00
2024-04-25T03:00:47.077Z,1152.00
2024-04-25T03:01:47.046Z,1139.00
2024-04-25T03:02:47.277Z,1140.00
2024-04-25T03:03:47.130Z,1133.00
2024-04-25T03:04:47.096Z,1135.00
2024-04-25T03:05:47.181Z,1134.00
2024-04-25T03:06:47.125Z,1131.00
2024-04-25T03:07:47.145Z,1134.00
2024-04-25T03:08:47.198Z,1129.00
2024-04-25T03:09:47.160Z,1130.00
2024-04-25T03:10:47.171Z,1133.00
2024-04-25T03:11:47.253Z,1123.00
2024-04-25T03:12:47.199Z,1127.00
2024-04-25T03:13:47.219Z,1118.00
2024-04-25T03:14:47.270Z,1113.00
2024-04-25T03:15:47.340Z,1129.00
2024-04-25T03:16:47.371Z,1118.00
2024-04-25T03:17:47.590Z,1116.00
2024-04-25T03:18:47.653Z,1113.00
2024-04-25T03:19:47.562Z,1117.00
2024-04-25T03:20:47.592Z,1120.00
2024-04-25T03:21:47.600Z,1117.00
2024-04-25T03:22:47.640Z,1114.00
2024-04-25T03:23:47.690Z,1119.00
2024-04-25T03:24:47.730Z,1116.00
2024-04-25T03:25:47.797Z,1106.00
2024-04-25T03:26:47.868Z,1112.00
2024-04-25T03:27:47.930Z,1116.00
2024-04-25T03:28:48.012Z,1110.00
2024-04-25T03:29:48.076Z,1108.00
2024-04-25T03:30:48.155Z,1109.00
2024-04-25T03:31:48.255Z,1110.00
2024-04-25T03:32:48.352Z,1113.00
2024-04-25T03:33:48.404Z,1104.00
2024-04-25T03:34:48.431Z,1105.00
2024-04-25T03:35:48.527Z,1102.00
2024-04-25T03:36:48.566Z,1110.00
2024-04-25T03:37:48.644Z,1111.00
2024-04-25T03:38:48.716Z,1109.00
2024-04-25T03:39:48.762Z,1104.00
2024-04-25T03:40:48.849Z,1105.00
2024-04-25T03:41:48.936Z,1109.00
2024-04-25T03:42:48.980Z,1098.00
2024-04-25T03:43:49.062Z,1105.00
2024-04-25T03:44:49.102Z,1105.00
2024-04-25T03:45:49.171Z,1106.00
2024-04-25T03:46:49.234Z,1103.00
2024-04-25T03:47:49.348Z,1101.00
2024-04-25T03:48:49.504Z,1088.00
2024-04-25T03:49:49.431Z,1104.00
2024-04-25T03:50:49.512Z,1100.00
2024-04-25T03:51:49.568Z,1107.00
2024-04-25T03:52:49.633Z,1104.00
2024-04-25T03:53:49.723Z,1104.00
2024-04-25T03:54:49.753Z,1094.00
2024-04-25T03:55:49.812Z,1099.00
2024-04-25T03:56:49.874Z,1097.00
2024-04-25T03:57:49.943Z,1097.00
2024-04-25T03:58:50.001Z,1090.00
2024-04-25T03:59:50.099Z,1094.00
2024-04-25T04:00:50.136Z,1097.00
2024-04-25T04:01:50.277Z,1098.00
2024-04-25T04:02:50.280Z,1102.00
2024-04-25T04:03:50.355Z,1091.00
2024-04-25T04:04:50.369Z,1096.00
2024-04-25T04:05:50.416Z,1091.00
2024-04-25T04:06:50.488Z,1095.00
2024-04-25T04:07:50.522Z,1090.00
2024-04-25T04:08:50.608Z,1094.00
2024-04-25T04:09:50.659Z,1088.00
2024-04-25T04:10:50.723Z,1096.00
2024-04-25T04:11:50.810Z,1102.00
2024-04-25T04:12:50.813Z,1091.00
2024-04-25T04:13:50.886Z,1092.00
2024-04-25T04:14:50.953Z,1097.00
2024-04-25T04:15:51.033Z,1092.00
2024-04-25T04:16:51.038Z,1086.00
2024-04-25T04:17:51.149Z,1085.00
2024-04-25T04:18:51.189Z,1089.00
2024-04-25T04:19:51.236Z,1091.00
2024-04-25T04:20:51.300Z,1081.00
2024-04-25T04:21:51.316Z,1088.00
2024-04-25T04:22:51.362Z,1089.00
2024-04-25T04:23:51.440Z,1089.00
2024-04-25T04:24:51.488Z,1086.00
2024-04-25T04:25:51.552Z,1082.00
2024-04-25T04:26:51.606Z,1084.00
2024-04-25T04:27:51.674Z,1077.00
2024-04-25T04:28:51.741Z,1081.00
2024-04-25T04:29:51.770Z,1077.00
2024-04-25T04:30:51.829Z,1086.00
2024-04-25T04:31:51.904Z,1069.00
2024-04-25T04:32:52.020Z,1075.00
2024-04-25T04:33:52.168Z,1080.00
2024-04-25T04:34:52.064Z,1086.00
2024-04-25T04:35:52.132Z,1079.00
2024-04-25T04:36:52.233Z,1077.00
2024-04-25T04:37:52.224Z,1070.00
2024-04-25T04:38:52.287Z,1083.00
2024-04-25T04:39:52.359Z,1076.00
2024-04-25T04:40:52.443Z,1079.00
2024-04-25T04:41:52.490Z,1087.00
2024-04-25T04:42:52.519Z,1078.00
2024-04-25T04:43:52.577Z,1078.00
2024-04-25T04:44:52.631Z,1075.00
2024-04-25T04:45:52.693Z,1076.00
2024-04-25T04:46:52.754Z,1082.00
2024-04-25T04:47:52.846Z,1082.00
2024-04-25T04:48:52.919Z,1084.00
2024-04-25T04:49:52.914Z,1078.00
2024-04-25T04:50:52.968Z,1080.00
2024-04-25T04:51:53.013Z,1070.00
2024-04-25T04:52:53.083Z,1075.00
2024-04-25T04:53:53.136Z,1079.00
2024-04-25T04:54:53.179Z,1074.00
2024-04-25T04:55:53.235Z,1066.00
2024-04-25T04:57:00.573Z,600.00
2024-04-25T04:58:00.602Z,600.00
2024-04-25T04:59:00.591Z,600.00
2024-04-25T05:00:00.594Z,600.00
2024-04-25T05:01:00.633Z,600.00
2024-04-25T05:02:00.806Z,603.00
2024-04-25T05:03:00.858Z,603.00
2024-04-25T05:04:00.740Z,606.00
2024-04-25T05:05:00.638Z,603.00
2024-04-25T05:06:00.656Z,607.00
2024-04-25T05:07:00.663Z,601.00
2024-04-25T05:08:00.672Z,600.00
2024-04-25T05:09:00.680Z,600.00
2024-04-25T05:10:00.674Z,598.00
2024-04-25T05:11:00.692Z,600.00
2024-04-25T05:12:00.755Z,597.00
2024-04-25T05:13:00.720Z,600.00
2024-04-25T05:14:00.716Z,595.00
2024-04-25T05:15:00.721Z,600.00
2024-04-25T05:16:00.787Z,596.00
2024-04-25T05:17:00.793Z,600.00
2024-04-25T05:18:00.765Z,600.00
2024-04-25T05:19:00.757Z,602.00
2024-04-25T05:20:00.770Z,600.00
2024-04-25T05:21:00.856Z,600.00
2024-04-25T05:22:01.043Z,600.00
2024-04-25T05:23:00.806Z,604.00
2024-04-25T05:24:00.847Z,599.00
2024-04-25T05:25:00.822Z,600.00
2024-04-25T05:26:00.830Z,604.00
2024-04-25T05:27:00.844Z,601.00
2024-04-25T05:28:00.842Z,600.00
2024-04-25T05:29:00.853Z,608.00
2024-04-25T05:30:00.888Z,625.00
2024-04-25T05:31:00.881Z,630.00
2024-04-25T05:32:00.903Z,626.00
2024-04-25T05:33:01.069Z,645.00
2024-04-25T05:34:01.694Z,657.00
2024-04-25T05:35:03.556Z,666.00
2024-04-25T05:36:00.919Z,666.00
2024-04-25T05:37:00.952Z,673.00
2024-04-25T05:38:00.943Z,697.00
2024-04-25T05:39:00.942Z,756.00
2024-04-25T05:40:00.959Z,845.00
2024-04-25T05:41:01.007Z,893.00
2024-04-25T05:42:00.993Z,944.00
2024-04-25T05:43:01.046Z,997.00
2024-04-25T05:44:01.027Z,1040.00
2024-04-25T05:45:01.092Z,1079.00
2024-04-25T05:46:00.998Z,1112.00
2024-04-25T05:47:01.031Z,1137.00
2024-04-25T05:48:01.298Z,1166.00
2024-04-25T05:49:01.054Z,1195.00
2024-04-25T05:50:01.089Z,1203.00
2024-04-25T05:51:01.036Z,1225.00
2024-04-25T05:52:01.061Z,1228.00
2024-04-25T05:53:01.069Z,1250.00
2024-04-25T05:54:01.054Z,1250.00
2024-04-25T05:55:01.066Z,1240.00
2024-04-25T05:56:01.059Z,1244.00
2024-04-25T05:57:01.064Z,1257.00
2024-04-25T05:58:01.066Z,1251.00
2024-04-25T05:59:01.083Z,1236.00
2024-04-25T06:00:01.149Z,1250.00
2024-04-25T06:01:01.202Z,1236.00
2024-04-25T06:02:01.103Z,1240.00
2024-04-25T06:03:04.286Z,1243.00
2024-04-25T06:04:01.179Z,1245.00
2024-04-25T06:05:01.173Z,1234.00
2024-04-25T06:06:01.104Z,1223.00
2024-04-25T06:07:01.111Z,1224.00
2024-04-25T06:08:01.103Z,1208.00
2024-04-25T06:09:01.113Z,1205.00
2024-04-25T06:10:01.474Z,1204.00
2024-04-25T06:11:01.246Z,1196.00
2024-04-25T06:12:01.311Z,1202.00
2024-04-25T06:13:01.283Z,1208.00
2024-04-25T06:14:01.114Z,1217.00
2024-04-25T06:15:01.120Z,1215.00
2024-04-25T06:16:01.115Z,1207.00
2024-04-25T06:17:01.207Z,1202.00
2024-04-25T06:18:01.687Z,1212.00
2024-04-25T06:19:01.109Z,1198.00
2024-04-25T06:20:01.122Z,1195.00
2024-04-25T06:21:01.088Z,1180.00
2024-04-25T06:22:01.104Z,1173.00
2024-04-25T06:23:01.096Z,1191.00
2024-04-25T06:24:01.304Z,1218.00
2024-04-25T06:25:01.166Z,1234.00
2024-04-25T06:26:01.131Z,1245.00
2024-04-25T06:27:01.114Z,1258.00
2024-04-25T06:28:01.087Z,1290.00
2024-04-25T06:29:01.164Z,1298.00
2024-04-25T06:30:01.186Z,1322.00
2024-04-25T06:31:01.130Z,1336.00
2024-04-25T06:32:01.123Z,1342.00
2024-04-25T06:33:01.255Z,1317.00
2024-04-25T06:34:01.132Z,1313.00
2024-04-25T06:35:01.089Z,1276.00
2024-04-25T06:36:01.051Z,1252.00
2024-04-25T06:37:01.144Z,1223.00
2024-04-25T06:38:01.053Z,1204.00
2024-04-25T06:39:01.059Z,1164.00
2024-04-25T06:40:01.723Z,1145.00
2024-04-25T06:41:01.042Z,1112.00
2024-04-25T06:42:01.052Z,1078.00
2024-04-25T06:43:01.066Z,1037.00
2024-04-25T06:44:05.159Z,1029.00
2024-04-25T06:45:02.155Z,1001.00
2024-04-25T06:46:01.054Z,975.00
2024-04-25T06:47:01.065Z,940.00
2024-04-25T06:48:01.336Z,915.00
2024-04-25T06:49:01.312Z,889.00
2024-04-25T06:50:01.065Z,853.00
2024-04-25T06:51:01.115Z,832.00
2024-04-25T06:52:01.100Z,810.00
2024-04-25T06:53:01.073Z,788.00
2024-04-25T06:54:01.087Z,768.00
2024-04-25T06:55:01.091Z,732.00
2024-04-25T06:56:01.077Z,727.00
2024-04-25T06:57:01.099Z,719.00
2024-04-25T06:58:01.100Z,706.00
2024-04-25T06:59:01.105Z,703.00
2024-04-25T07:00:01.166Z,684.00
2024-04-25T07:01:01.195Z,667.00
2024-04-25T07:02:01.145Z,660.00
2024-04-25T07:03:01.230Z,663.00
2024-04-25T07:04:01.174Z,659.00
2024-04-25T07:05:01.166Z,650.00
2024-04-25T07:06:01.159Z,650.00
2024-04-25T07:07:01.143Z,642.00
2024-04-25T07:08:01.171Z,635.00
2024-04-25T07:09:01.200Z,630.00
2024-04-25T07:10:01.209Z,629.00
2024-04-25T07:11:01.284Z,623.00
2024-04-25T07:12:01.279Z,615.00
2024-04-25T07:13:01.286Z,610.00
2024-04-25T07:14:02.225Z,604.00
2024-04-25T07:15:01.395Z,601.00
2024-04-25T07:16:01.393Z,600.00
2024-04-25T07:17:01.452Z,611.00
2024-04-25T07:18:02.287Z,614.00
2024-04-25T07:19:01.496Z,618.00
2024-04-25T07:20:01.551Z,631.00
2024-04-25T07:21:02.223Z,632.00
2024-04-25T07:22:01.631Z,642.00
2024-04-25T07:23:01.627Z,661.00
2024-04-25T07:24:03.809Z,666.00
2024-04-25T07:25:01.711Z,684.00
2024-04-25T07:26:01.757Z,678.00
2024-04-25T07:27:01.813Z,665.00
2024-04-25T07:28:01.848Z,662.00
2024-04-25T07:29:01.864Z,655.00
2024-04-25T07:30:02.032Z,650.00
2024-04-25T07:31:01.954Z,647.00
2024-04-25T07:32:02.026Z,639.00
2024-04-25T07:33:02.260Z,632.00
2024-04-25T07:34:02.096Z,629.00
2024-04-25T07:35:02.127Z,621.00
2024-04-25T07:36:02.182Z,621.00
2024-04-25T07:37:02.227Z,610.00
2024-04-25T07:38:02.295Z,602.00
2024-04-25T07:39:02.439Z,603.00
2024-04-25T07:40:02.392Z,602.00
2024-04-25T07:41:02.441Z,600.00
2024-04-25T07:42:02.508Z,601.00
2024-04-25T07:43:02.566Z,599.00
2024-04-25T07:44:02.628Z,601.00
2024-04-25T07:45:02.729Z,599.00
2024-04-25T07:46:02.756Z,600.00
2024-04-25T07:47:02.833Z,601.00
2024-04-25T07:48:03.842Z,600.00
2024-04-25T07:49:03.125Z,601.00
2024-04-25T07:50:03.025Z,600.00
2024-04-25T07:51:03.093Z,601.00
2024-04-25T07:52:03.174Z,603.00
2024-04-25T07:53:03.242Z,602.00
2024-04-25T07:54:03.309Z,603.00
2024-04-25T07:55:03.374Z,602.00
2024-04-25T07:56:03.460Z,601.00
2024-04-25T07:57:03.548Z,601.00
2024-04-25T07:58:03.607Z,600.00
2024-04-25T07:59:03.692Z,604.00
2024-04-25T08:00:03.765Z,604.00
2024-04-25T08:01:03.915Z,602.00
2024-04-25T08:02:03.919Z,602.00
2024-04-25T08:03:04.154Z,601.00
2024-04-25T08:04:04.079Z,598.00
2024-04-25T08:05:04.199Z,602.00
2024-04-25T08:06:04.230Z,602.00
2024-04-25T08:07:04.290Z,599.00
2024-04-25T08:08:04.350Z,600.00
2024-04-25T08:09:04.426Z,602.00
2024-04-25T08:10:04.487Z,600.00
2024-04-25T08:11:05.296Z,603.00
2024-04-25T08:12:04.704Z,604.00
2024-04-25T08:13:04.713Z,609.00
2024-04-25T08:14:04.773Z,607.00
2024-04-25T08:15:04.836Z,620.00
2024-04-25T08:16:05.027Z,603.00
2024-04-25T08:17:04.982Z,602.00
2024-04-25T08:18:05.125Z,603.00
2024-04-25T08:19:05.744Z,615.00
2024-04-25T08:20:05.681Z,624.00
2024-04-25T08:21:05.272Z,644.00
2024-04-25T08:22:06.242Z,661.00
2024-04-25T08:23:05.401Z,670.00
2024-04-25T08:24:05.472Z,708.00
2024-04-25T08:25:05.529Z,756.00
2024-04-25T08:26:05.659Z,817.00
2024-04-25T08:27:06.866Z,877.00
2024-04-25T08:28:05.747Z,900.00
2024-04-25T08:29:05.819Z,945.00
2024-04-25T08:30:07.775Z,975.00
2024-04-25T08:31:05.939Z,1008.00
2024-04-25T08:32:05.990Z,1032.00
2024-04-25T08:33:07.028Z,1063.00
2024-04-25T08:34:06.151Z,1096.00
2024-04-25T08:35:06.129Z,1131.00
2024-04-25T08:36:06.150Z,1168.00
2024-04-25T08:37:06.188Z,1185.00
2024-04-25T08:38:07.174Z,1200.00
2024-04-25T08:39:06.305Z,1220.00
2024-04-25T08:40:06.300Z,1251.00
2024-04-25T08:41:06.302Z,1266.00
2024-04-25T08:42:06.342Z,1285.00
2024-04-25T08:43:06.373Z,1294.00
2024-04-25T08:44:06.402Z,1309.00
2024-04-25T08:45:06.432Z,1326.00
2024-04-25T08:46:06.440Z,1333.00
2024-04-25T08:47:06.478Z,1328.00
2024-04-25T08:48:06.638Z,1335.00
2024-04-25T08:49:06.496Z,1357.00
2024-04-25T08:50:06.512Z,1349.00
2024-04-25T08:51:06.529Z,1349.00
2024-04-25T08:52:06.528Z,1360.00
2024-04-25T08:53:06.539Z,1358.00
2024-04-25T08:54:06.544Z,1381.00
2024-04-25T08:55:06.554Z,1369.00
2024-04-25T08:56:06.569Z,1361.00
2024-04-25T08:57:06.608Z,1359.00
2024-04-25T08:58:06.600Z,1338.00
2024-04-25T08:59:06.580Z,1351.00
2024-04-25T09:00:06.584Z,1347.00
2024-04-25T09:01:06.666Z,1341.00
2024-04-25T09:02:06.633Z,1338.00
2024-04-25T09:03:06.709Z,1331.00
2024-04-25T09:04:06.719Z,1312.00
2024-04-25T09:05:06.657Z,1288.00
2024-04-25T09:06:06.673Z,1273.00
2024-04-25T09:07:06.846Z,1251.00
2024-04-25T09:08:06.709Z,1237.00
2024-04-25T09:09:06.712Z,1233.00
2024-04-25T09:10:06.756Z,1222.00
2024-04-25T09:11:06.791Z,1201.00
2024-04-25T09:12:08.793Z,1180.00
2024-04-25T09:13:06.770Z,1179.00
2024-04-25T09:14:07.735Z,1152.00
2024-04-25T09:15:06.772Z,1149.00
2024-04-25T09:16:06.820Z,1127.00
2024-04-25T09:17:07.784Z,1142.00
2024-04-25T09:18:06.888Z,1125.00
2024-04-25T09:19:06.802Z,1124.00
2024-04-25T09:20:06.814Z,1142.00
2024-04-25T09:21:06.857Z,1158.00
2024-04-25T09:22:06.849Z,1171.00
2024-04-25T09:23:07.043Z,1182.00
2024-04-25T09:24:07.052Z,1195.00
2024-04-25T09:25:06.918Z,1205.00
2024-04-25T09:26:09.843Z,1194.00
2024-04-25T09:27:07.699Z,1196.00
2024-04-25T09:28:07.071Z,1205.00
2024-04-25T09:29:07.781Z,1184.00
2024-04-25T09:30:06.974Z,1167.00
2024-04-25T09:31:07.780Z,1156.00
2024-04-25T09:32:08.736Z,1159.00
2024-04-25T09:33:08.057Z,1153.00
2024-04-25T09:34:08.764Z,1156.00
2024-04-25T09:35:08.809Z,1160.00
2024-04-25T09:36:06.991Z,1173.00
2024-04-25T09:37:07.702Z,1199.00
2024-04-25T09:38:07.013Z,1239.00
2024-04-25T09:39:06.994Z,1285.00
2024-04-25T09:40:07.203Z,1306.00
2024-04-25T09:41:07.083Z,1333.00
2024-04-25T09:42:07.031Z,1364.00
2024-04-25T09:43:07.026Z,1361.00
2024-04-25T09:44:07.017Z,1363.00
2024-04-25T09:45:07.005Z,1369.00
2024-04-25T09:46:07.038Z,1369.00
2024-04-25T09:47:07.021Z,1343.00
2024-04-25T09:48:07.159Z,1347.00
2024-04-25T09:49:07.799Z,1328.00
2024-04-25T09:50:07.039Z,1338.00
2024-04-25T09:51:07.036Z,1334.00
2024-04-25T09:52:07.051Z,1324.00
2024-04-25T09:53:07.057Z,1314.00
2024-04-25T09:54:07.096Z,1304.00
2024-04-25T09:55:07.050Z,1293.00
2024-04-25T09:56:07.055Z,1272.00
2024-04-25T09:57:07.084Z,1245.00
2024-04-25T09:58:07.056Z,1255.00
2024-04-25T09:59:07.066Z,1208.00
2024-04-25T10:00:07.077Z,1155.00
2024-04-25T10:01:08.120Z,1122.00
2024-04-25T10:02:07.108Z,1118.00
2024-04-25T10:03:07.839Z,1101.00
2024-04-25T10:04:07.143Z,1092.00
2024-04-25T10:05:07.066Z,1088.00
2024-04-25T10:06:07.096Z,1077.00
2024-04-25T10:07:07.106Z,1044.00
2024-04-25T10:08:07.068Z,989.00
2024-04-25T10:09:07.053Z,986.00
2024-04-25T10:10:07.046Z,1010.00
2024-04-25T10:11:10.402Z,1041.00
2024-04-25T10:12:07.151Z,1065.00
2024-04-25T10:13:07.045Z,1100.00
2024-04-25T10:14:07.060Z,1095.00
2024-04-25T10:15:07.051Z,1123.00
2024-04-25T10:16:07.063Z,1124.00
2024-04-25T10:17:07.048Z,1133.00
2024-04-25T10:18:07.194Z,1120.00
2024-04-25T10:19:07.181Z,1133.00
2024-04-25T10:20:07.073Z,1145.00
2024-04-25T10:21:07.050Z,1136.00
2024-04-25T10:22:07.074Z,1100.00
2024-04-25T10:23:07.052Z,1079.00
2024-04-25T10:24:07.057Z,1059.00
2024-04-25T10:25:07.075Z,1037.00
2024-04-25T10:26:07.797Z,1007.00
2024-04-25T10:27:07.070Z,981.00
2024-04-25T10:28:07.067Z,949.00
2024-04-25T10:29:07.096Z,907.00
2024-04-25T10:30:07.133Z,868.00
2024-04-25T10:31:07.085Z,844.00
2024-04-25T10:32:07.132Z,810.00
2024-04-25T10:33:07.290Z,777.00
2024-04-25T10:34:09.065Z,753.00
2024-04-25T10:35:07.099Z,707.00
2024-04-25T10:36:07.282Z,679.00
2024-04-25T10:37:07.189Z,649.00
2024-04-25T10:38:07.239Z,634.00
2024-04-25T10:39:09.187Z,626.00
2024-04-25T10:40:07.424Z,609.00
2024-04-25T10:41:07.413Z,600.00
2024-04-25T10:42:07.448Z,599.00
2024-04-25T10:43:07.515Z,600.00
2024-04-25T10:44:07.532Z,602.00
2024-04-25T10:45:07.552Z,600.00
2024-04-25T10:46:07.593Z,600.00
2024-04-25T10:47:07.642Z,602.00
2024-04-25T10:48:07.741Z,600.00
2024-04-25T10:49:07.944Z,602.00
2024-04-25T10:50:08.195Z,603.00
2024-04-25T10:51:07.980Z,600.00
2024-04-25T10:52:07.927Z,603.00
2024-04-25T10:53:08.049Z,602.00
2024-04-25T10:54:08.046Z,602.00
2024-04-25T10:55:08.003Z,597.00
2024-04-25T10:56:08.023Z,603.00
2024-04-25T10:57:08.088Z,601.00
2024-04-25T10:58:08.125Z,600.00
2024-04-25T10:59:08.207Z,603.00
2024-04-25T11:00:08.211Z,600.00
2024-04-25T11:01:08.373Z,600.00
2024-04-25T11:02:08.359Z,601.00
2024-04-25T11:03:08.420Z,600.00
2024-04-25T11:04:08.399Z,603.00
2024-04-25T11:05:08.454Z,602.00
2024-04-25T11:06:08.499Z,602.00
2024-04-25T11:07:08.536Z,601.00
2024-04-25T11:08:08.589Z,603.00
2024-04-25T11:09:08.629Z,608.00
2024-04-25T11:10:08.677Z,619.00
2024-04-25T11:11:08.805Z,612.00
2024-04-25T11:12:11.864Z,608.00
2024-04-25T11:13:08.780Z,604.00
2024-04-25T11:14:08.782Z,601.00
2024-04-25T11:15:08.790Z,598.00
2024-04-25T11:16:08.787Z,594.00
2024-04-25T11:17:08.813Z,594.00
2024-04-25T11:18:13.446Z,600.00
2024-04-25T11:19:15.192Z,599.00
2024-04-25T11:20:09.968Z,600.00
2024-04-25T11:21:08.964Z,600.00
2024-04-25T11:22:09.034Z,598.00
2024-04-25T11:23:09.857Z,591.00
2024-04-25T11:24:08.832Z,584.00
2024-04-25T11:25:08.814Z,604.00
2024-04-25T11:26:08.827Z,604.00
2024-04-25T11:27:08.834Z,600.00
2024-04-25T11:28:08.844Z,606.00
2024-04-25T11:29:08.835Z,600.00
2024-04-25T11:30:08.839Z,600.00
2024-04-25T11:31:08.843Z,599.00
2024-04-25T11:32:08.935Z,609.00
2024-04-25T11:33:09.020Z,608.00
2024-04-25T11:34:08.917Z,600.00
2024-04-25T11:35:08.844Z,601.00
2024-04-25T11:36:08.853Z,604.00
2024-04-25T11:37:08.871Z,600.00
2024-04-25T11:38:08.902Z,601.00
2024-04-25T11:39:08.846Z,604.00
2024-04-25T11:40:08.939Z,606.00
2024-04-25T11:41:08.868Z,604.00
2024-04-25T11:42:08.857Z,605.00
2024-04-25T11:43:08.929Z,601.00
2024-04-25T11:44:08.965Z,605.00
2024-04-25T11:45:09.017Z,608.00
2024-04-25T11:46:09.066Z,603.00
2024-04-25T11:47:09.121Z,609.00
2024-04-25T11:48:09.372Z,601.00
2024-04-25T11:49:09.343Z,604.00
2024-04-25T11:50:09.293Z,600.00
2024-04-25T11:51:09.371Z,603.00
2024-04-25T11:52:09.425Z,610.00
2024-04-25T11:53:09.507Z,605.00
2024-04-25T11:54:09.527Z,608.00
2024-04-25T11:55:09.588Z,609.00
2024-04-25T11:56:09.650Z,606.00
2024-04-25T11:57:09.721Z,602.00
2024-04-25T11:58:09.790Z,605.00
2024-04-25T11:59:09.855Z,607.00
2024-04-25T12:00:09.914Z,603.00
2024-04-25T12:01:10.014Z,602.00
2024-04-25T12:02:10.048Z,602.00
2024-04-25T12:03:10.131Z,605.00
2024-04-25T12:04:10.759Z,606.00
2024-04-25T12:05:10.311Z,619.00
2024-04-25T12:06:10.338Z,648.00
2024-04-25T12:07:10.432Z,691.00
2024-04-25T12:08:10.462Z,748.00
2024-04-25T12:09:10.507Z,810.00
2024-04-25T12:10:10.542Z,829.00
2024-04-25T12:11:10.598Z,884.00
2024-04-25T12:12:10.711Z,938.00
2024-04-25T12:13:10.686Z,981.00
2024-04-25T12:14:10.724Z,990.00